createdAt,value
2022-10-18T00:00:43.632Z,58.80
2022-10-18T00:03:10.592Z,58.80
2022-10-18T00:05:37.395Z,58.70
2022-10-18T00:08:04.332Z,58.60
2022-10-18T00:10:32.379Z,58.50
2022-10-18T00:12:59.170Z,58.50
2022-10-18T00:15:26.071Z,59.10
2022-10-18T00:17:52.884Z,59.10
2022-10-18T00:20:19.790Z,59.10
2022-10-18T00:22:46.563Z,59.70
2022-10-18T00:25:15.250Z,59.50
2022-10-18T00:27:43.484Z,59.90
2022-10-18T00:30:10.774Z,59.40
2022-10-18T00:32:37.966Z,59.50
2022-10-18T00:35:06.185Z,60.10
2022-10-18T00:37:33.300Z,60.00
2022-10-18T00:40:00.307Z,60.10
2022-10-18T00:42:30.767Z,60.60
2022-10-18T00:45:13.006Z,60.80
2022-10-18T00:47:39.747Z,60.60
2022-10-18T00:50:08.841Z,60.80
2022-10-18T00:52:39.243Z,60.70
2022-10-18T00:55:07.382Z,61.20
2022-10-18T00:57:34.743Z,61.20
2022-10-18T01:00:04.501Z,60.80
2022-10-18T01:02:32.642Z,60.90
2022-10-18T01:04:59.627Z,60.80
2022-10-18T01:07:43.148Z,60.70
2022-10-18T01:10:23.102Z,60.60
2022-10-18T01:13:00.736Z,61.80
2022-10-18T01:15:32.759Z,61.00
2022-10-18T01:18:09.257Z,61.20
2022-10-18T01:21:01.290Z,61.10
2022-10-18T01:24:00.736Z,60.50
2022-10-18T01:26:45.462Z,61.60
2022-10-18T01:29:22.040Z,62.00
2022-10-18T01:31:56.372Z,62.70
2022-10-18T01:34:27.768Z,62.20
2022-10-18T01:36:56.805Z,61.80
2022-10-18T01:39:27.489Z,62.10
2022-10-18T01:41:56.198Z,61.60
2022-10-18T01:44:25.921Z,62.10
2022-10-18T01:46:56.126Z,60.80
2022-10-18T01:49:24.158Z,60.30
2022-10-18T01:51:51.218Z,60.30
2022-10-18T01:54:22.444Z,60.20
2022-10-18T01:56:57.153Z,60.70
2022-10-18T01:59:35.025Z,60.70
2022-10-18T02:02:13.577Z,60.80
2022-10-18T02:04:46.343Z,60.10
2022-10-18T02:07:21.896Z,59.80
2022-10-18T02:09:54.584Z,59.70
2022-10-18T02:12:22.667Z,59.30
2022-10-18T02:14:50.438Z,59.30
2022-10-18T02:17:19.573Z,59.20
2022-10-18T02:19:50.040Z,59.40
2022-10-18T02:22:18.072Z,59.60
2022-10-18T02:24:49.360Z,59.80
2022-10-18T02:27:16.432Z,60.00
2022-10-18T02:29:44.175Z,59.70
2022-10-18T02:32:17.912Z,59.80
2022-10-18T02:34:49.551Z,59.50
2022-10-18T02:37:17.075Z,59.40
2022-10-18T02:39:46.207Z,59.80
2022-10-18T02:42:14.445Z,59.30
2022-10-18T02:44:41.231Z,59.10
2022-10-18T02:47:09.801Z,58.90
2022-10-18T02:49:36.601Z,58.70
2022-10-18T02:52:04.841Z,58.50
2022-10-18T02:54:31.608Z,58.50
2022-10-18T02:56:58.410Z,58.30
2022-10-18T02:59:25.269Z,58.00
2022-10-18T03:01:52.073Z,58.10
2022-10-18T03:04:19.011Z,58.30
2022-10-18T03:06:45.851Z,58.00
2022-10-18T03:09:13.923Z,57.70
2022-10-18T03:11:40.661Z,57.80
2022-10-18T03:14:07.455Z,57.40
2022-10-18T03:16:34.446Z,57.20
2022-10-18T03:19:01.186Z,57.10
2022-10-18T03:21:28.290Z,57.00
2022-10-18T03:23:55.489Z,57.10
2022-10-18T03:26:23.617Z,57.20
2022-10-18T03:28:50.404Z,57.40
2022-10-18T03:31:17.378Z,57.00
2022-10-18T03:33:44.230Z,56.90
2022-10-18T03:36:11.055Z,57.00
2022-10-18T03:38:37.846Z,57.10
2022-10-18T03:41:04.930Z,57.20
2022-10-18T03:43:33.040Z,57.10
2022-10-18T03:46:00.536Z,57.10
2022-10-18T03:48:27.387Z,57.00
2022-10-18T03:50:54.161Z,56.80
2022-10-18T03:53:20.991Z,56.70
2022-10-18T03:55:51.237Z,56.70
2022-10-18T03:58:18.055Z,56.90
2022-10-18T04:00:48.632Z,56.90
2022-10-18T04:03:15.493Z,56.60
2022-10-18T04:05:42.284Z,56.60
2022-10-18T04:08:09.076Z,56.50
2022-10-18T04:10:37.593Z,56.40
2022-10-18T04:13:04.709Z,56.60
2022-10-18T04:15:31.627Z,56.70
2022-10-18T04:17:59.953Z,56.50
2022-10-18T04:20:27.362Z,56.60
2022-10-18T04:22:54.493Z,56.40
2022-10-18T04:25:21.681Z,56.70
2022-10-18T04:27:48.771Z,56.30
2022-10-18T04:30:15.911Z,56.10
2022-10-18T04:32:42.795Z,56.10
2022-10-18T04:35:11.202Z,56.00
2022-10-18T04:37:37.922Z,56.30
2022-10-18T04:40:05.875Z,56.00
2022-10-18T04:42:32.680Z,56.10
2022-10-18T04:44:59.391Z,56.00
2022-10-18T04:47:26.206Z,55.80
2022-10-18T04:49:52.981Z,55.60
2022-10-18T04:52:21.095Z,55.70
2022-10-18T04:54:47.788Z,56.20
2022-10-18T04:57:14.587Z,56.20
2022-10-18T04:59:41.324Z,56.10
2022-10-18T05:02:08.028Z,56.40
2022-10-18T05:04:34.823Z,56.40
2022-10-18T05:07:01.579Z,56.60
2022-10-18T05:09:29.703Z,56.60
2022-10-18T05:11:56.406Z,56.50
2022-10-18T05:14:23.150Z,56.90
2022-10-18T05:16:49.917Z,57.50
2022-10-18T05:19:16.723Z,58.30
2022-10-18T05:21:43.554Z,58.60
2022-10-18T05:24:11.640Z,58.40
2022-10-18T05:26:39.856Z,58.30
2022-10-18T05:29:06.753Z,58.30
2022-10-18T05:31:33.588Z,57.80
2022-10-18T05:34:00.325Z,57.50
2022-10-18T05:36:27.321Z,57.40
2022-10-18T05:38:54.178Z,57.60
2022-10-18T05:41:20.997Z,57.50
2022-10-18T05:43:49.045Z,57.40
2022-10-18T05:46:16.004Z,57.40
2022-10-18T05:48:43.453Z,57.30
2022-10-18T05:51:10.591Z,57.20
2022-10-18T05:53:38.226Z,57.30
2022-10-18T05:56:06.481Z,57.60
2022-10-18T05:58:33.542Z,57.30
2022-10-18T06:01:02.202Z,57.60
2022-10-18T06:03:29.041Z,57.40
2022-10-18T06:05:59.516Z,57.90
2022-10-18T06:08:26.374Z,57.90
2022-10-18T06:10:53.106Z,58.20
2022-10-18T06:13:19.882Z,58.30
2022-10-18T06:15:46.586Z,58.60
2022-10-18T06:18:15.095Z,58.90
2022-10-18T06:20:41.856Z,59.10
2022-10-18T06:23:08.745Z,59.00
2022-10-18T06:25:35.541Z,59.60
2022-10-18T06:28:05.979Z,59.60
2022-10-18T06:30:35.284Z,59.60
2022-10-18T06:33:02.293Z,59.50
2022-10-18T06:35:32.093Z,59.00
2022-10-18T06:37:59.513Z,58.80
2022-10-18T06:40:26.767Z,58.50
2022-10-18T06:43:00.392Z,58.10
2022-10-18T06:45:33.088Z,58.10
2022-10-18T06:47:59.922Z,58.10
2022-10-18T06:50:26.796Z,57.40
2022-10-18T06:52:55.471Z,57.40
2022-10-18T06:55:22.220Z,57.80
2022-10-18T06:57:49.176Z,58.00
2022-10-18T07:00:16.580Z,58.20
2022-10-18T07:02:43.952Z,58.10
2022-10-18T07:05:11.429Z,58.20
2022-10-18T07:07:38.753Z,58.30
2022-10-18T07:10:13.022Z,58.00
2022-10-18T07:12:40.379Z,58.40
2022-10-18T07:15:09.478Z,58.20
2022-10-18T07:17:36.594Z,58.30
2022-10-18T07:20:04.361Z,58.40
2022-10-18T07:22:31.362Z,58.30
2022-10-18T07:24:58.244Z,58.10
2022-10-18T07:27:26.852Z,57.70
2022-10-18T07:29:53.610Z,57.70
2022-10-18T07:32:20.434Z,57.50
2022-10-18T07:34:47.275Z,57.40
2022-10-18T07:37:14.048Z,56.90
2022-10-18T07:39:40.824Z,56.90
2022-10-18T07:42:07.599Z,56.90
2022-10-18T07:44:35.796Z,57.30
2022-10-18T07:47:02.553Z,57.50
2022-10-18T07:49:29.259Z,56.80
2022-10-18T07:51:55.988Z,56.90
2022-10-18T07:54:22.734Z,57.40
2022-10-18T07:56:49.530Z,57.80
2022-10-18T07:59:16.303Z,57.80
2022-10-18T08:01:44.410Z,58.00
2022-10-18T08:04:16.073Z,57.50
2022-10-18T08:06:43.188Z,57.40
2022-10-18T08:09:10.204Z,57.50
2022-10-18T08:11:36.956Z,58.00
2022-10-18T08:14:03.692Z,57.80
2022-10-18T08:18:59.202Z,58.30
2022-10-18T08:21:26.649Z,58.40
2022-10-18T08:23:53.581Z,58.90
2022-10-18T08:26:21.967Z,59.50
2022-10-18T08:28:58.292Z,59.40
2022-10-18T08:31:36.379Z,59.60
2022-10-18T08:34:04.502Z,59.20
2022-10-18T08:36:31.295Z,59.70
2022-10-18T08:38:58.105Z,59.60
2022-10-18T08:41:45.963Z,59.60
2022-10-18T08:44:17.629Z,59.40
2022-10-18T08:46:47.005Z,58.90
2022-10-18T08:49:24.444Z,58.60
2022-10-18T08:51:52.104Z,58.70
2022-10-18T08:54:25.443Z,58.50
2022-10-18T08:56:58.634Z,59.10
2022-10-18T08:59:25.710Z,58.90
2022-10-18T09:02:02.422Z,58.70
2022-10-18T09:04:44.258Z,58.80
2022-10-18T09:07:31.178Z,58.50
2022-10-18T09:10:03.194Z,58.10
2022-10-18T09:12:54.070Z,58.60
2022-10-18T09:15:29.545Z,58.20
2022-10-18T09:18:10.163Z,58.20
2022-10-18T09:20:49.406Z,58.10
2022-10-18T09:23:19.958Z,57.80
2022-10-18T09:25:48.725Z,58.00
2022-10-18T09:28:22.072Z,58.30
2022-10-18T09:30:59.609Z,58.70
2022-10-18T09:33:34.762Z,58.30
2022-10-18T09:36:06.343Z,58.60
2022-10-18T09:38:40.676Z,58.40
2022-10-18T09:41:13.347Z,58.50
2022-10-18T09:43:47.353Z,58.90
2022-10-18T09:46:15.354Z,58.90
2022-10-18T09:48:47.373Z,58.80
2022-10-18T09:51:17.215Z,60.00
2022-10-18T09:53:49.440Z,60.00
2022-10-18T09:56:22.458Z,59.80
2022-10-18T09:58:50.693Z,60.60
2022-10-18T10:01:21.708Z,61.00
2022-10-18T10:03:48.480Z,61.90
2022-10-18T10:06:23.633Z,61.80
2022-10-18T10:08:55.399Z,61.50
2022-10-18T10:11:32.016Z,61.70
2022-10-18T10:14:08.196Z,61.90
2022-10-18T10:16:43.967Z,61.80
2022-10-18T10:19:19.538Z,61.90
2022-10-18T10:21:50.358Z,62.80
2022-10-18T10:24:25.092Z,62.90
2022-10-18T10:27:03.094Z,62.90
2022-10-18T10:29:50.409Z,63.30
2022-10-18T10:32:19.405Z,61.90
2022-10-18T10:34:46.728Z,62.30
2022-10-18T10:37:33.704Z,62.70
2022-10-18T10:40:18.455Z,62.70
2022-10-18T10:43:36.643Z,63.10
2022-10-18T10:46:53.408Z,63.20
2022-10-18T10:49:39.069Z,63.50
2022-10-18T10:52:09.266Z,63.80
2022-10-18T10:55:05.418Z,63.20
2022-10-18T10:57:39.064Z,63.20
2022-10-18T11:00:06.868Z,63.20
2022-10-18T11:02:35.538Z,62.90
2022-10-18T11:05:21.697Z,63.00
2022-10-18T11:07:51.339Z,63.10
2022-10-18T11:10:23.015Z,63.70
2022-10-18T11:13:05.476Z,63.80
2022-10-18T11:18:34.006Z,63.10
2022-10-18T11:21:05.605Z,63.40
2022-10-18T11:23:56.880Z,63.50
2022-10-18T11:27:08.133Z,63.00
2022-10-18T11:29:51.821Z,62.00
2022-10-18T11:42:31.888Z,61.80
2022-10-18T11:45:39.951Z,62.50
2022-10-18T11:48:33.891Z,62.40
2022-10-18T11:51:10.790Z,62.60
2022-10-18T12:01:01.627Z,62.50
2022-10-18T12:04:05.884Z,62.30
2022-10-18T12:15:59.856Z,63.20
2022-10-18T12:18:31.996Z,62.90
2022-10-18T12:28:04.102Z,62.50
2022-10-18T12:37:25.290Z,61.90
2022-10-18T12:40:18.536Z,61.70
2022-10-18T12:43:12.851Z,61.60
2022-10-18T12:46:07.284Z,61.50
2022-10-18T12:49:04.981Z,61.50
2022-10-18T12:51:39.059Z,60.90
2022-10-18T12:54:18.197Z,61.30
2022-10-18T12:56:49.754Z,61.40
2022-10-18T13:03:33.113Z,60.50
2022-10-18T13:06:06.887Z,60.60
2022-10-18T13:08:51.135Z,61.20
2022-10-18T13:11:37.079Z,61.00
2022-10-18T13:18:22.682Z,59.80
2022-10-18T13:20:57.511Z,61.40
2022-10-18T13:23:38.180Z,60.00
2022-10-18T13:26:17.480Z,59.20
2022-10-18T13:28:52.962Z,58.40
2022-10-18T13:31:22.831Z,58.40
2022-10-18T13:33:51.105Z,58.40
2022-10-18T13:36:23.899Z,58.40
2022-10-18T13:39:01.404Z,58.30
2022-10-18T13:41:32.861Z,58.30
2022-10-18T13:44:24.661Z,58.40
2022-10-18T13:47:32.185Z,58.50
2022-10-18T13:50:35.292Z,58.00
2022-10-18T13:53:39.716Z,58.00
2022-10-18T13:56:39.661Z,57.80
2022-10-18T13:59:26.689Z,57.70
2022-10-18T14:02:15.078Z,57.30
2022-10-18T14:05:16.541Z,57.10
2022-10-18T14:07:50.546Z,57.30
2022-10-18T14:10:29.755Z,57.00
2022-10-18T14:13:06.373Z,56.30
2022-10-18T14:15:39.120Z,56.40
2022-10-18T14:18:14.982Z,56.20
2022-10-18T14:21:01.294Z,56.20
2022-10-18T14:23:35.780Z,56.20
2022-10-18T14:26:12.877Z,55.90
2022-10-18T14:28:58.477Z,56.00
2022-10-18T14:31:26.666Z,56.30
2022-10-18T14:33:57.865Z,56.60
2022-10-18T14:36:26.992Z,56.10
2022-10-18T14:38:56.556Z,55.90
2022-10-18T14:41:25.327Z,55.40
2022-10-18T14:43:53.994Z,55.50
2022-10-18T14:46:22.680Z,55.20
2022-10-18T14:48:54.001Z,55.00
2022-10-18T14:51:21.412Z,55.10
2022-10-18T14:53:48.940Z,55.40
2022-10-18T14:56:25.315Z,55.10
2022-10-18T14:58:52.687Z,55.40
2022-10-18T15:01:23.267Z,55.60
2022-10-18T15:03:50.520Z,55.40
2022-10-18T15:06:19.614Z,55.60
2022-10-18T15:08:51.240Z,55.20
2022-10-18T15:11:18.481Z,55.30
2022-10-18T15:13:50.945Z,55.30
2022-10-18T15:16:19.480Z,55.30
2022-10-18T15:19:03.440Z,55.30
2022-10-18T15:21:30.475Z,55.20
2022-10-18T15:24:19.385Z,55.40
2022-10-18T15:26:47.543Z,55.30
2022-10-18T15:29:18.926Z,55.40
2022-10-18T15:31:47.084Z,55.40
2022-10-18T15:34:20.075Z,55.30
2022-10-18T15:36:48.333Z,55.20
2022-10-18T15:39:17.436Z,55.30
2022-10-18T15:41:48.297Z,55.00
2022-10-18T15:44:23.049Z,55.00
2022-10-18T15:46:51.480Z,55.10
2022-10-18T15:49:47.467Z,55.10
2022-10-18T15:52:35.216Z,54.90
2022-10-18T15:55:37.528Z,54.40
2022-10-18T15:58:04.994Z,54.30
2022-10-18T16:00:33.162Z,54.20
2022-10-18T16:02:59.958Z,54.30
2022-10-18T16:05:26.696Z,54.00
2022-10-18T16:07:53.480Z,53.90
2022-10-18T16:10:20.585Z,54.10
2022-10-18T16:12:47.352Z,53.90
2022-10-18T16:15:14.302Z,53.80
2022-10-18T16:17:42.513Z,53.80
2022-10-18T16:20:19.021Z,53.70
2022-10-18T16:22:45.800Z,53.50
2022-10-18T16:25:12.556Z,53.60
2022-10-18T16:27:39.306Z,53.80
2022-10-18T16:30:12.495Z,53.70
2022-10-18T16:32:39.448Z,53.60
2022-10-18T16:35:08.988Z,53.60
2022-10-18T16:37:35.796Z,53.60
2022-10-18T16:40:13.625Z,53.50
2022-10-18T16:42:40.414Z,53.40
2022-10-18T16:45:07.882Z,53.50
2022-10-18T16:47:34.683Z,53.30
2022-10-18T16:50:06.358Z,53.30
2022-10-18T16:52:35.330Z,53.30
2022-10-18T16:55:02.288Z,53.20
2022-10-18T16:57:29.087Z,53.20
2022-10-18T16:59:55.951Z,53.30
2022-10-18T17:02:22.718Z,53.20
2022-10-18T17:04:49.555Z,53.10
2022-10-18T17:07:23.004Z,53.10
2022-10-18T17:09:51.212Z,52.90
2022-10-18T17:12:18.016Z,53.20
2022-10-18T17:14:44.819Z,53.10
2022-10-18T17:17:12.448Z,53.00
2022-10-18T17:19:39.262Z,53.00
2022-10-18T17:22:06.053Z,52.90
2022-10-18T17:24:33.357Z,53.00
2022-10-18T17:27:01.614Z,52.90
2022-10-18T17:29:28.561Z,52.90
2022-10-18T17:31:55.298Z,52.90
2022-10-18T17:34:22.058Z,52.70
2022-10-18T17:36:48.887Z,52.90
2022-10-18T17:39:15.658Z,53.00
2022-10-18T17:41:42.509Z,52.80
2022-10-18T17:44:10.637Z,52.80
2022-10-18T17:46:37.405Z,53.20
2022-10-18T17:49:04.239Z,52.90
2022-10-18T17:51:31.054Z,53.00
2022-10-18T17:53:57.808Z,53.70
2022-10-18T17:56:24.758Z,53.00
2022-10-18T17:58:51.907Z,52.90
2022-10-18T18:01:22.531Z,53.00
2022-10-18T18:03:49.693Z,53.10
2022-10-18T18:06:18.502Z,53.00
2022-10-18T18:08:45.820Z,52.90
2022-10-18T18:11:13.078Z,53.00
2022-10-18T18:13:40.126Z,53.00
2022-10-18T18:16:11.998Z,53.60
2022-10-18T18:18:40.233Z,53.00
2022-10-18T18:21:07.040Z,53.00
2022-10-18T18:23:33.820Z,53.20
2022-10-18T18:26:00.608Z,53.00
2022-10-18T18:28:27.486Z,53.10
2022-10-18T18:30:54.318Z,53.10
2022-10-18T18:33:21.067Z,53.20
2022-10-18T18:35:55.819Z,53.20
2022-10-18T18:38:22.553Z,53.20
2022-10-18T18:40:49.302Z,53.20
2022-10-18T18:43:23.643Z,53.50
2022-10-18T18:45:51.078Z,53.50
2022-10-18T18:48:19.864Z,53.70
2022-10-18T18:50:46.893Z,53.70
2022-10-18T18:53:15.029Z,53.90
2022-10-18T18:55:41.940Z,54.00
2022-10-18T18:58:08.718Z,54.20
2022-10-18T19:00:41.739Z,54.90
2022-10-18T19:03:11.716Z,54.40
2022-10-18T19:05:38.781Z,54.70
2022-10-18T19:08:05.911Z,54.80
2022-10-18T19:10:34.123Z,54.80
2022-10-18T19:13:00.841Z,54.90
2022-10-18T19:15:27.605Z,54.90
2022-10-18T19:17:55.306Z,54.90
2022-10-18T19:20:22.200Z,54.80
2022-10-18T19:22:48.929Z,54.80
2022-10-18T19:25:15.759Z,54.70
2022-10-18T19:27:43.937Z,54.60
2022-10-18T19:30:11.695Z,54.60
2022-10-18T19:32:38.449Z,54.40
2022-10-18T19:35:05.795Z,54.40
2022-10-18T19:37:32.911Z,54.40
2022-10-18T19:39:59.874Z,54.20
2022-10-18T19:42:30.325Z,54.00
2022-10-18T19:44:59.433Z,54.00
2022-10-18T19:47:26.205Z,54.10
2022-10-18T19:49:52.954Z,54.00
2022-10-18T19:52:19.699Z,54.00
2022-10-18T19:54:48.447Z,54.00
2022-10-18T19:57:15.384Z,53.90
2022-10-18T19:59:42.090Z,53.90
2022-10-18T20:02:13.387Z,53.90
2022-10-18T20:04:40.073Z,54.00
2022-10-18T20:07:06.856Z,53.80
2022-10-18T20:09:33.817Z,53.80
2022-10-18T20:12:00.588Z,53.90
2022-10-18T20:14:27.353Z,53.90
2022-10-18T20:16:54.774Z,53.90
2022-10-18T20:19:22.836Z,53.90
2022-10-18T20:21:49.613Z,53.80
2022-10-18T20:24:16.492Z,53.50
2022-10-18T20:26:43.298Z,53.50
2022-10-18T20:29:10.066Z,53.50
2022-10-18T20:31:37.028Z,53.50
2022-10-18T20:34:06.033Z,53.40
2022-10-18T20:36:34.845Z,53.50
2022-10-18T20:39:01.842Z,53.50
2022-10-18T20:41:30.118Z,53.30
2022-10-18T20:43:58.376Z,53.20
2022-10-18T20:46:25.439Z,53.20
2022-10-18T20:48:53.541Z,53.20
2022-10-18T20:51:21.098Z,53.30
2022-10-18T20:53:49.688Z,53.30
2022-10-18T20:56:18.830Z,53.20
2022-10-18T20:58:46.474Z,53.10
2022-10-18T21:01:15.109Z,53.00
2022-10-18T21:03:43.804Z,53.10
2022-10-18T21:06:12.181Z,53.00
2022-10-18T21:08:39.645Z,53.10
2022-10-18T21:11:08.851Z,53.10
2022-10-18T21:13:36.202Z,53.00
2022-10-18T21:16:04.417Z,52.90
2022-10-18T21:18:32.466Z,53.00
2022-10-18T21:21:08.064Z,53.00
2022-10-18T21:23:34.866Z,52.90
2022-10-18T21:26:01.617Z,52.90
2022-10-18T21:28:29.824Z,52.90
2022-10-18T21:30:56.645Z,52.90
2022-10-18T21:33:23.599Z,52.80
2022-10-18T21:35:50.364Z,52.80
2022-10-18T21:38:17.136Z,52.70
2022-10-18T21:40:43.934Z,52.80
2022-10-18T21:43:10.756Z,52.80
2022-10-18T21:45:38.877Z,52.70
2022-10-18T21:48:06.108Z,52.80
2022-10-18T21:50:34.469Z,52.70
2022-10-18T21:53:01.252Z,52.60
2022-10-18T21:55:28.006Z,52.70
2022-10-18T21:57:54.686Z,52.60
2022-10-18T22:00:21.556Z,52.60
2022-10-18T22:03:04.898Z,52.60
2022-10-18T22:05:31.667Z,52.60
2022-10-18T22:07:58.423Z,52.60
2022-10-18T22:10:25.394Z,52.60
2022-10-18T22:12:52.213Z,52.50
2022-10-18T22:15:18.972Z,52.50
2022-10-18T22:17:45.874Z,52.60
2022-10-18T22:20:14.113Z,52.60
2022-10-18T22:22:40.895Z,52.60
2022-10-18T22:25:08.435Z,52.60
2022-10-18T22:27:35.627Z,52.60
2022-10-18T22:30:02.821Z,52.70
2022-10-18T22:32:29.600Z,52.70
2022-10-18T22:34:56.333Z,52.80
2022-10-18T22:37:24.480Z,52.80
2022-10-18T22:39:51.348Z,52.70
2022-10-18T22:42:18.401Z,52.80
2022-10-18T22:44:45.142Z,52.70
2022-10-18T22:47:11.911Z,52.80
2022-10-18T22:49:38.683Z,52.90
2022-10-18T22:52:05.675Z,52.90
2022-10-18T22:54:33.872Z,53.50
2022-10-18T22:57:00.670Z,52.90
2022-10-18T22:59:27.470Z,52.90
2022-10-18T23:01:54.202Z,52.90
2022-10-18T23:04:21.133Z,52.90
2022-10-18T23:06:47.855Z,52.90
2022-10-18T23:09:14.587Z,52.90
2022-10-18T23:11:42.680Z,52.90
2022-10-18T23:14:10.919Z,53.00
2022-10-18T23:16:37.631Z,52.80
2022-10-18T23:19:04.440Z,53.00
2022-10-18T23:21:31.208Z,53.50
2022-10-18T23:23:57.954Z,52.90
2022-10-18T23:26:26.928Z,52.80
2022-10-18T23:28:55.465Z,52.90
2022-10-18T23:31:24.646Z,52.80
2022-10-18T23:33:53.393Z,53.00
2022-10-18T23:36:21.226Z,52.80
2022-10-18T23:38:48.248Z,52.90
2022-10-18T23:41:16.272Z,53.00
2022-10-18T23:43:43.657Z,53.10
2022-10-18T23:46:12.628Z,53.20
2022-10-18T23:48:39.392Z,53.30
2022-10-18T23:51:06.688Z,53.40
2022-10-18T23:53:33.985Z,53.90
2022-10-18T23:56:03.494Z,54.00
2022-10-18T23:58:31.826Z,54.20
